sensor_id;sensor_type;location;lat;lon;timestamp;pressure;altitude;pressure_sealevel;temperature;humidity
4392;BME280;2210;51.938;8.488;2023-02-13T00:03:53;102736.75;;;7.50;100.00
4392;BME280;2210;51.938;8.488;2023-02-13T00:07:59;102742.38;;;7.49;100.00
4392;BME280;2210;51.938;8.488;2023-02-13T00:12:00;102738.59;;;7.50;100.00
4392;BME280;2210;51.938;8.488;2023-02-13T00:16:02;102735.56;;;7.53;100.00
4392;BME280;2210;51.938;8.488;2023-02-13T00:20:03;102736.25;;;7.55;100.00
4392;BME280;2210;51.938;8.488;2023-02-13T00:24:04;102739.09;;;7.45;100.00
4392;BME280;2210;51.938;8.488;2023-02-13T00:28:04;102732.81;;;7.53;100.00
4392;BME280;2210;51.938;8.488;2023-02-13T00:32:08;102732.91;;;7.43;100.00
4392;BME280;2210;51.938;8.488;2023-02-13T00:36:13;102737.88;;;7.39;100.00
4392;BME280;2210;51.938;8.488;2023-02-13T00:40:13;102733.25;;;7.40;100.00
4392;BME280;2210;51.938;8.488;2023-02-13T00:44:14;102733.28;;;7.48;100.00
4392;BME280;2210;51.938;8.488;2023-02-13T00:48:15;102728.47;;;7.42;100.00
4392;BME280;2210;51.938;8.488;2023-02-13T00:52:15;102731.34;;;7.40;100.00
4392;BME280;2210;51.938;8.488;2023-02-13T00:56:16;102736.31;;;7.37;100.00
4392;BME280;2210;51.938;8.488;2023-02-13T01:00:16;102733.03;;;7.33;100.00
4392;BME280;2210;51.938;8.488;2023-02-13T01:04:16;102729.72;;;7.30;100.00
4392;BME280;2210;51.938;8.488;2023-02-13T01:08:23;102727.53;;;7.33;100.00
4392;BME280;2210;51.938;8.488;2023-02-13T01:12:24;102736.09;;;7.30;100.00
4392;BME280;2210;51.938;8.488;2023-02-13T01:16:24;102733.69;;;7.27;100.00
4392;BME280;2210;51.938;8.488;2023-02-13T01:20:24;102729.50;;;7.23;100.00
4392;BME280;2210;51.938;8.488;2023-02-13T01:24:25;102723.56;;;7.28;100.00
4392;BME280;2210;51.938;8.488;2023-02-13T01:28:29;102737.59;;;7.24;100.00
4392;BME280;2210;51.938;8.488;2023-02-13T01:32:29;102728.50;;;7.24;100.00
4392;BME280;2210;51.938;8.488;2023-02-13T01:36:35;102727.97;;;7.20;100.00
4392;BME280;2210;51.938;8.488;2023-02-13T01:40:51;102716.84;;;7.22;100.00
4392;BME280;2210;51.938;8.488;2023-02-13T01:45:30;102723.16;;;7.22;100.00
4392;BME280;2210;51.938;8.488;2023-02-13T01:49:39;102718.53;;;7.23;100.00
4392;BME280;2210;51.938;8.488;2023-02-13T01:58:07;102716.13;;;7.20;100.00
4392;BME280;2210;51.938;8.488;2023-02-13T02:02:15;102713.03;;;7.23;100.00
4392;BME280;2210;51.938;8.488;2023-02-13T02:06:20;102707.72;;;7.21;100.00
4392;BME280;2210;51.938;8.488;2023-02-13T02:10:23;102706.50;;;7.16;100.00
4392;BME280;2210;51.938;8.488;2023-02-13T02:14:24;102697.94;;;7.19;100.00
4392;BME280;2210;51.938;8.488;2023-02-13T02:18:31;102704.25;;;7.11;100.00
4392;BME280;2210;51.938;8.488;2023-02-13T02:27:12;102701.00;;;7.16;100.00
4392;BME280;2210;51.938;8.488;2023-02-13T02:31:35;102700.31;;;7.14;100.00
4392;BME280;2210;51.938;8.488;2023-02-13T02:35:46;102693.56;;;7.08;100.00
4392;BME280;2210;51.938;8.488;2023-02-13T02:40:23;102693.72;;;7.06;100.00
4392;BME280;2210;51.938;8.488;2023-02-13T02:44:31;102692.38;;;7.11;100.00
4392;BME280;2210;51.938;8.488;2023-02-13T02:48:42;102686.53;;;7.05;100.00
4392;BME280;2210;51.938;8.488;2023-02-13T02:53:22;102687.56;;;7.04;100.00
4392;BME280;2210;51.938;8.488;2023-02-13T02:57:47;102682.06;;;7.04;100.00
4392;BME280;2210;51.938;8.488;2023-02-13T03:02:11;102674.53;;;7.06;100.00
4392;BME280;2210;51.938;8.488;2023-02-13T03:06:53;102668.19;;;7.06;100.00
4392;BME280;2210;51.938;8.488;2023-02-13T03:10:55;102665.94;;;7.01;100.00
4392;BME280;2210;51.938;8.488;2023-02-13T03:15:14;102662.31;;;7.01;100.00
4392;BME280;2210;51.938;8.488;2023-02-13T03:24:03;102649.16;;;7.04;100.00
4392;BME280;2210;51.938;8.488;2023-02-13T03:32:38;102663.50;;;6.98;100.00
4392;BME280;2210;51.938;8.488;2023-02-13T03:37:00;102651.53;;;6.99;100.00
4392;BME280;2210;51.938;8.488;2023-02-13T03:41:28;102651.84;;;6.96;100.00
4392;BME280;2210;51.938;8.488;2023-02-13T03:45:37;102666.03;;;6.91;100.00
4392;BME280;2210;51.938;8.488;2023-02-13T03:49:57;102664.22;;;7.00;100.00
4392;BME280;2210;51.938;8.488;2023-02-13T03:54:16;102661.31;;;7.02;100.00
4392;BME280;2210;51.938;8.488;2023-02-13T03:58:24;102671.72;;;6.98;100.00
4392;BME280;2210;51.938;8.488;2023-02-13T04:02:53;102667.44;;;6.96;100.00
4392;BME280;2210;51.938;8.488;2023-02-13T04:07:00;102663.25;;;7.09;100.00
4392;BME280;2210;51.938;8.488;2023-02-13T04:15:18;102666.41;;;6.97;100.00
4392;BME280;2210;51.938;8.488;2023-02-13T04:19:24;102668.59;;;6.93;100.00
4392;BME280;2210;51.938;8.488;2023-02-13T04:23:25;102675.81;;;6.94;100.00
4392;BME280;2210;51.938;8.488;2023-02-13T04:27:26;102669.31;;;6.95;100.00
4392;BME280;2210;51.938;8.488;2023-02-13T04:31:27;102673.06;;;6.94;100.00
4392;BME280;2210;51.938;8.488;2023-02-13T04:35:27;102678.41;;;6.96;100.00
4392;BME280;2210;51.938;8.488;2023-02-13T04:39:30;102670.34;;;6.94;100.00
4392;BME280;2210;51.938;8.488;2023-02-13T04:43:34;102667.44;;;6.96;100.00
4392;BME280;2210;51.938;8.488;2023-02-13T04:47:34;102670.66;;;6.91;100.00
4392;BME280;2210;51.938;8.488;2023-02-13T04:51:34;102665.81;;;6.85;100.00
4392;BME280;2210;51.938;8.488;2023-02-13T04:55:35;102664.84;;;6.94;100.00
4392;BME280;2210;51.938;8.488;2023-02-13T04:59:35;102656.00;;;6.82;100.00
4392;BME280;2210;51.938;8.488;2023-02-13T05:03:35;102658.63;;;6.84;100.00
4392;BME280;2210;51.938;8.488;2023-02-13T05:07:35;102661.66;;;6.81;100.00
4392;BME280;2210;51.938;8.488;2023-02-13T05:11:35;102662.00;;;6.78;100.00
4392;BME280;2210;51.938;8.488;2023-02-13T05:15:36;102665.44;;;6.80;100.00
4392;BME280;2210;51.938;8.488;2023-02-13T05:19:39;102655.50;;;6.79;100.00
4392;BME280;2210;51.938;8.488;2023-02-13T05:23:39;102664.72;;;6.78;100.00
4392;BME280;2210;51.938;8.488;2023-02-13T05:27:42;102667.09;;;6.72;100.00
4392;BME280;2210;51.938;8.488;2023-02-13T05:31:43;102663.34;;;6.73;100.00
4392;BME280;2210;51.938;8.488;2023-02-13T05:35:43;102666.00;;;6.65;100.00
4392;BME280;2210;51.938;8.488;2023-02-13T05:39:44;102665.44;;;6.80;100.00
4392;BME280;2210;51.938;8.488;2023-02-13T05:43:44;102664.13;;;6.66;100.00
4392;BME280;2210;51.938;8.488;2023-02-13T05:47:44;102661.53;;;6.64;100.00
4392;BME280;2210;51.938;8.488;2023-02-13T05:51:45;102666.16;;;6.64;100.00
4392;BME280;2210;51.938;8.488;2023-02-13T05:55:46;102672.34;;;6.66;100.00
4392;BME280;2210;51.938;8.488;2023-02-13T05:59:46;102675.69;;;6.78;100.00
4392;BME280;2210;51.938;8.488;2023-02-13T06:03:47;102683.25;;;6.75;100.00
4392;BME280;2210;51.938;8.488;2023-02-13T06:07:47;102674.84;;;6.77;100.00
4392;BME280;2210;51.938;8.488;2023-02-13T06:11:50;102681.19;;;6.78;100.00
4392;BME280;2210;51.938;8.488;2023-02-13T06:15:56;102687.16;;;6.73;100.00
4392;BME280;2210;51.938;8.488;2023-02-13T06:20:09;102685.25;;;6.73;100.00
4392;BME280;2210;51.938;8.488;2023-02-13T06:24:13;102682.19;;;6.77;100.00
4392;BME280;2210;51.938;8.488;2023-02-13T06:28:19;102676.31;;;6.71;100.00
4392;BME280;2210;51.938;8.488;2023-02-13T06:32:19;102687.00;;;6.74;100.00
4392;BME280;2210;51.938;8.488;2023-02-13T06:36:22;102689.75;;;6.74;100.00
4392;BME280;2210;51.938;8.488;2023-02-13T06:40:23;102701.72;;;6.73;100.00
4392;BME280;2210;51.938;8.488;2023-02-13T06:44:23;102707.59;;;6.79;100.00
4392;BME280;2210;51.938;8.488;2023-02-13T06:48:24;102703.97;;;6.78;100.00
4392;BME280;2210;51.938;8.488;2023-02-13T06:52:30;102704.84;;;6.79;100.00
4392;BME280;2210;51.938;8.488;2023-02-13T06:56:30;102710.94;;;6.72;100.00
4392;BME280;2210;51.938;8.488;2023-02-13T07:00:31;102707.13;;;6.65;100.00
4392;BME280;2210;51.938;8.488;2023-02-13T07:04:32;102716.53;;;6.63;100.00
4392;BME280;2210;51.938;8.488;2023-02-13T07:08:32;102719.75;;;6.58;100.00
4392;BME280;2210;51.938;8.488;2023-02-13T07:12:36;102722.63;;;6.56;100.00
4392;BME280;2210;51.938;8.488;2023-02-13T07:16:45;102719.88;;;6.56;100.00
4392;BME280;2210;51.938;8.488;2023-02-13T07:20:46;102723.50;;;6.57;100.00
4392;BME280;2210;51.938;8.488;2023-02-13T07:24:52;102721.78;;;6.56;100.00
4392;BME280;2210;51.938;8.488;2023-02-13T07:28:52;102731.00;;;6.55;100.00
4392;BME280;2210;51.938;8.488;2023-02-13T07:32:52;102731.16;;;6.53;100.00
4392;BME280;2210;51.938;8.488;2023-02-13T07:36:52;102719.75;;;6.58;100.00
4392;BME280;2210;51.938;8.488;2023-02-13T07:40:53;102728.41;;;6.53;100.00
4392;BME280;2210;51.938;8.488;2023-02-13T07:44:59;102726.56;;;6.54;100.00
4392;BME280;2210;51.938;8.488;2023-02-13T07:49:06;102728.59;;;6.52;100.00
4392;BME280;2210;51.938;8.488;2023-02-13T07:53:09;102739.53;;;6.52;100.00
4392;BME280;2210;51.938;8.488;2023-02-13T07:57:09;102737.91;;;6.59;100.00
4392;BME280;2210;51.938;8.488;2023-02-13T08:01:19;102734.47;;;6.57;100.00
4392;BME280;2210;51.938;8.488;2023-02-13T08:05:19;102722.53;;;6.48;100.00
4392;BME280;2210;51.938;8.488;2023-02-13T08:09:20;102736.81;;;6.52;100.00
4392;BME280;2210;51.938;8.488;2023-02-13T08:13:45;102741.69;;;6.58;100.00
4392;BME280;2210;51.938;8.488;2023-02-13T08:17:45;102742.53;;;6.58;100.00
4392;BME280;2210;51.938;8.488;2023-02-13T08:21:45;102734.16;;;6.60;100.00
4392;BME280;2210;51.938;8.488;2023-02-13T08:25:51;102734.78;;;6.54;100.00
4392;BME280;2210;51.938;8.488;2023-02-13T08:29:58;102730.84;;;6.56;100.00
4392;BME280;2210;51.938;8.488;2023-02-13T08:34:08;102736.19;;;6.58;100.00
4392;BME280;2210;51.938;8.488;2023-02-13T08:38:14;102740.34;;;6.62;100.00
4392;BME280;2210;51.938;8.488;2023-02-13T08:42:14;102730.72;;;6.58;100.00
4392;BME280;2210;51.938;8.488;2023-02-13T08:46:17;102738.84;;;6.68;100.00
4392;BME280;2210;51.938;8.488;2023-02-13T08:50:24;102729.28;;;6.72;100.00
4392;BME280;2210;51.938;8.488;2023-02-13T08:54:28;102733.22;;;6.69;100.00
4392;BME280;2210;51.938;8.488;2023-02-13T08:58:31;102734.22;;;6.68;100.00
4392;BME280;2210;51.938;8.488;2023-02-13T09:02:31;102742.13;;;6.71;100.00
4392;BME280;2210;51.938;8.488;2023-02-13T09:06:37;102745.56;;;6.73;100.00
4392;BME280;2210;51.938;8.488;2023-02-13T09:10:41;102753.66;;;6.75;100.00
4392;BME280;2210;51.938;8.488;2023-02-13T09:14:46;102748.31;;;6.73;100.00
4392;BME280;2210;51.938;8.488;2023-02-13T09:18:47;102745.97;;;6.79;100.00
4392;BME280;2210;51.938;8.488;2023-02-13T09:23:03;102748.78;;;6.87;100.00
4392;BME280;2210;51.938;8.488;2023-02-13T09:27:04;102756.38;;;6.93;100.00
4392;BME280;2210;51.938;8.488;2023-02-13T09:31:06;102750.97;;;7.01;100.00
4392;BME280;2210;51.938;8.488;2023-02-13T09:35:06;102743.69;;;6.92;100.00
4392;BME280;2210;51.938;8.488;2023-02-13T09:39:08;102744.38;;;6.94;100.00
4392;BME280;2210;51.938;8.488;2023-02-13T09:43:29;102747.13;;;6.94;100.00
4392;BME280;2210;51.938;8.488;2023-02-13T09:47:35;102754.47;;;7.12;100.00
4392;BME280;2210;51.938;8.488;2023-02-13T09:51:36;102743.94;;;7.25;100.00
4392;BME280;2210;51.938;8.488;2023-02-13T09:55:40;102750.59;;;7.22;100.00
4392;BME280;2210;51.938;8.488;2023-02-13T09:59:57;102751.34;;;7.06;100.00
4392;BME280;2210;51.938;8.488;2023-02-13T10:04:29;102745.44;;;7.19;100.00
4392;BME280;2210;51.938;8.488;2023-02-13T10:08:36;102749.97;;;7.29;100.00
4392;BME280;2210;51.938;8.488;2023-02-13T10:12:57;102750.84;;;7.29;100.00
4392;BME280;2210;51.938;8.488;2023-02-13T10:17:05;102755.94;;;7.24;100.00
4392;BME280;2210;51.938;8.488;2023-02-13T10:21:07;102751.47;;;7.23;100.00
4392;BME280;2210;51.938;8.488;2023-02-13T10:25:23;102755.91;;;7.42;100.00
4392;BME280;2210;51.938;8.488;2023-02-13T10:29:35;102754.22;;;7.49;100.00
4392;BME280;2210;51.938;8.488;2023-02-13T10:34:01;102746.84;;;7.50;100.00
4392;BME280;2210;51.938;8.488;2023-02-13T10:38:15;102746.22;;;7.56;100.00
4392;BME280;2210;51.938;8.488;2023-02-13T10:42:31;102746.84;;;7.50;100.00
4392;BME280;2210;51.938;8.488;2023-02-13T10:51:20;102741.22;;;7.59;100.00
4392;BME280;2210;51.938;8.488;2023-02-13T10:55:54;102739.75;;;7.65;100.00
4392;BME280;2210;51.938;8.488;2023-02-13T11:00:09;102736.13;;;7.65;100.00
4392;BME280;2210;51.938;8.488;2023-02-13T11:04:17;102738.00;;;7.64;100.00
4392;BME280;2210;51.938;8.488;2023-02-13T11:08:26;102731.13;;;7.60;100.00
4392;BME280;2210;51.938;8.488;2023-02-13T11:12:30;102728.63;;;7.75;100.00
4392;BME280;2210;51.938;8.488;2023-02-13T11:16:38;102724.75;;;7.94;100.00
4392;BME280;2210;51.938;8.488;2023-02-13T11:20:41;102722.44;;;8.16;100.00
4392;BME280;2210;51.938;8.488;2023-02-13T11:24:52;102715.94;;;8.17;100.00
4392;BME280;2210;51.938;8.488;2023-02-13T11:28:58;102719.38;;;8.27;100.00
4392;BME280;2210;51.938;8.488;2023-02-13T11:33:26;102722.09;;;8.19;100.00
4392;BME280;2210;51.938;8.488;2023-02-13T11:37:31;102718.47;;;8.10;100.00
4392;BME280;2210;51.938;8.488;2023-02-13T11:41:38;102708.69;;;8.16;100.00
4392;BME280;2210;51.938;8.488;2023-02-13T11:45:39;102701.09;;;8.09;100.00
4392;BME280;2210;51.938;8.488;2023-02-13T11:49:44;102703.88;;;8.18;100.00
4392;BME280;2210;51.938;8.488;2023-02-13T11:53:46;102706.78;;;8.08;100.00
4392;BME280;2210;51.938;8.488;2023-02-13T12:02:29;102690.47;;;8.06;100.00
4392;BME280;2210;51.938;8.488;2023-02-13T12:06:31;102688.63;;;8.23;100.00
4392;BME280;2210;51.938;8.488;2023-02-13T12:10:38;102686.00;;;8.05;100.00
4392;BME280;2210;51.938;8.488;2023-02-13T12:14:42;102680.84;;;8.10;100.00
4392;BME280;2210;51.938;8.488;2023-02-13T12:18:47;102672.69;;;8.52;100.00
4392;BME280;2210;51.938;8.488;2023-02-13T12:23:03;102659.06;;;8.25;100.00
4392;BME280;2210;51.938;8.488;2023-02-13T12:36:29;102645.22;;;8.76;100.00
4392;BME280;2210;51.938;8.488;2023-02-13T12:40:58;102638.66;;;8.69;100.00
4392;BME280;2210;51.938;8.488;2023-02-13T12:53:48;102634.53;;;8.82;100.00
4392;BME280;2210;51.938;8.488;2023-02-13T13:06:48;102605.63;;;9.02;100.00
4392;BME280;2210;51.938;8.488;2023-02-13T13:15:31;102591.19;;;9.00;100.00
4392;BME280;2210;51.938;8.488;2023-02-13T13:24:22;102579.53;;;8.90;100.00
4392;BME280;2210;51.938;8.488;2023-02-13T13:28:34;102578.06;;;9.19;100.00
4392;BME280;2210;51.938;8.488;2023-02-13T13:32:41;102566.81;;;9.28;100.00
4392;BME280;2210;51.938;8.488;2023-02-13T13:36:46;102567.81;;;9.36;100.00
4392;BME280;2210;51.938;8.488;2023-02-13T13:41:11;102572.53;;;9.27;100.00
4392;BME280;2210;51.938;8.488;2023-02-13T13:49:48;102564.19;;;9.43;100.00
4392;BME280;2210;51.938;8.488;2023-02-13T13:57:59;102563.47;;;9.50;100.00
4392;BME280;2210;51.938;8.488;2023-02-13T14:06:27;102561.00;;;9.55;100.00
4392;BME280;2210;51.938;8.488;2023-02-13T14:18:28;102554.78;;;9.61;100.00
4392;BME280;2210;51.938;8.488;2023-02-13T14:22:37;102549.25;;;9.69;100.00
4392;BME280;2210;51.938;8.488;2023-02-13T14:26:39;102551.34;;;9.59;100.00
4392;BME280;2210;51.938;8.488;2023-02-13T14:30:40;102546.53;;;9.61;100.00
4392;BME280;2210;51.938;8.488;2023-02-13T14:34:41;102554.78;;;9.61;100.00
4392;BME280;2210;51.938;8.488;2023-02-13T14:38:42;102545.00;;;9.58;100.00
4392;BME280;2210;51.938;8.488;2023-02-13T14:42:50;102545.88;;;9.51;100.00
4392;BME280;2210;51.938;8.488;2023-02-13T14:46:53;102527.69;;;9.50;100.00
4392;BME280;2210;51.938;8.488;2023-02-13T14:50:55;102532.31;;;9.49;100.00
4392;BME280;2210;51.938;8.488;2023-02-13T14:55:03;102535.19;;;9.56;100.00
4392;BME280;2210;51.938;8.488;2023-02-13T14:59:10;102523.72;;;9.52;100.00
4392;BME280;2210;51.938;8.488;2023-02-13T15:07:22;102522.22;;;9.41;100.00
4392;BME280;2210;51.938;8.488;2023-02-13T15:11:34;102523.78;;;9.36;100.00
4392;BME280;2210;51.938;8.488;2023-02-13T15:15:35;102528.25;;;9.37;100.00
4392;BME280;2210;51.938;8.488;2023-02-13T15:19:36;102519.81;;;9.38;100.00
4392;BME280;2210;51.938;8.488;2023-02-13T15:23:43;102518.09;;;9.37;100.00
4392;BME280;2210;51.938;8.488;2023-02-13T15:27:43;102512.31;;;9.24;100.00
4392;BME280;2210;51.938;8.488;2023-02-13T15:31:43;102502.88;;;9.18;100.00
4392;BME280;2210;51.938;8.488;2023-02-13T15:35:44;102501.69;;;9.13;100.00
4392;BME280;2210;51.938;8.488;2023-02-13T15:39:45;102500.00;;;9.03;100.00
4392;BME280;2210;51.938;8.488;2023-02-13T15:43:47;102503.50;;;8.97;100.00
4392;BME280;2210;51.938;8.488;2023-02-13T15:47:49;102505.53;;;8.95;100.00
4392;BME280;2210;51.938;8.488;2023-02-13T15:52:00;102503.53;;;8.89;100.00
4392;BME280;2210;51.938;8.488;2023-02-13T15:56:03;102511.63;;;8.82;100.00
4392;BME280;2210;51.938;8.488;2023-02-13T16:00:06;102512.84;;;8.80;100.00
4392;BME280;2210;51.938;8.488;2023-02-13T16:13:15;102509.28;;;8.54;100.00
4392;BME280;2210;51.938;8.488;2023-02-13T16:17:28;102504.66;;;8.47;100.00
4392;BME280;2210;51.938;8.488;2023-02-13T16:21:29;102498.28;;;8.38;100.00
4392;BME280;2210;51.938;8.488;2023-02-13T16:25:35;102488.69;;;8.25;100.00
4392;BME280;2210;51.938;8.488;2023-02-13T16:29:37;102483.19;;;8.17;100.00
4392;BME280;2210;51.938;8.488;2023-02-13T16:33:41;102481.31;;;8.09;100.00
4392;BME280;2210;51.938;8.488;2023-02-13T16:37:51;102493.66;;;7.97;100.00
4392;BME280;2210;51.938;8.488;2023-02-13T16:41:52;102498.81;;;7.84;100.00
4392;BME280;2210;51.938;8.488;2023-02-13T16:45:52;102503.63;;;7.73;100.00
4392;BME280;2210;51.938;8.488;2023-02-13T16:49:55;102507.75;;;7.69;100.00
4392;BME280;2210;51.938;8.488;2023-02-13T16:58:12;102504.44;;;7.49;100.00
4392;BME280;2210;51.938;8.488;2023-02-13T17:02:25;102504.91;;;7.45;100.00
4392;BME280;2210;51.938;8.488;2023-02-13T17:06:26;102520.53;;;7.36;100.00
4392;BME280;2210;51.938;8.488;2023-02-13T17:10:27;102526.16;;;7.26;100.00
4392;BME280;2210;51.938;8.488;2023-02-13T17:14:30;102526.47;;;7.23;100.00
4392;BME280;2210;51.938;8.488;2023-02-13T17:18:30;102524.03;;;7.12;100.00
4392;BME280;2210;51.938;8.488;2023-02-13T17:22:39;102534.16;;;7.11;100.00
4392;BME280;2210;51.938;8.488;2023-02-13T17:26:40;102533.25;;;7.02;100.00
4392;BME280;2210;51.938;8.488;2023-02-13T17:30:41;102539.44;;;7.04;100.00
4392;BME280;2210;51.938;8.488;2023-02-13T17:34:42;102535.69;;;7.05;100.00
4392;BME280;2210;51.938;8.488;2023-02-13T17:38:45;102526.72;;;6.95;100.00
4392;BME280;2210;51.938;8.488;2023-02-13T17:42:50;102533.97;;;6.78;100.00
4392;BME280;2210;51.938;8.488;2023-02-13T17:46:50;102527.34;;;6.54;100.00
4392;BME280;2210;51.938;8.488;2023-02-13T17:50:51;102528.50;;;6.52;100.00
4392;BME280;2210;51.938;8.488;2023-02-13T17:54:51;102525.28;;;6.56;100.00
4392;BME280;2210;51.938;8.488;2023-02-13T17:58:51;102524.38;;;6.48;100.00
4392;BME280;2210;51.938;8.488;2023-02-13T18:02:52;102521.84;;;6.54;100.00
4392;BME280;2210;51.938;8.488;2023-02-13T18:06:53;102513.69;;;6.36;100.00
4392;BME280;2210;51.938;8.488;2023-02-13T18:10:53;102515.31;;;6.29;100.00
4392;BME280;2210;51.938;8.488;2023-02-13T18:14:54;102510.81;;;6.20;100.00
4392;BME280;2210;51.938;8.488;2023-02-13T18:18:55;102517.72;;;6.24;100.00
4392;BME280;2210;51.938;8.488;2023-02-13T18:22:55;102521.41;;;6.15;100.00
4392;BME280;2210;51.938;8.488;2023-02-13T18:26:56;102515.47;;;6.01;100.00
4392;BME280;2210;51.938;8.488;2023-02-13T18:30:56;102516.38;;;5.92;100.00
4392;BME280;2210;51.938;8.488;2023-02-13T18:34:56;102514.25;;;5.86;100.00
4392;BME280;2210;51.938;8.488;2023-02-13T18:38:57;102523.28;;;5.78;100.00
4392;BME280;2210;51.938;8.488;2023-02-13T18:42:57;102524.28;;;5.59;100.00
4392;BME280;2210;51.938;8.488;2023-02-13T18:46:58;102527.88;;;5.60;100.00
4392;BME280;2210;51.938;8.488;2023-02-13T18:51:01;102518.09;;;5.57;100.00
4392;BME280;2210;51.938;8.488;2023-02-13T18:55:02;102512.84;;;5.46;100.00
4392;BME280;2210;51.938;8.488;2023-02-13T18:59:05;102515.91;;;5.43;100.00
4392;BME280;2210;51.938;8.488;2023-02-13T19:03:05;102521.06;;;5.46;100.00
4392;BME280;2210;51.938;8.488;2023-02-13T19:07:08;102517.50;;;5.35;100.00
4392;BME280;2210;51.938;8.488;2023-02-13T19:11:14;102518.59;;;5.24;100.00
4392;BME280;2210;51.938;8.488;2023-02-13T19:15:15;102514.34;;;5.12;100.00
4392;BME280;2210;51.938;8.488;2023-02-13T19:19:18;102510.81;;;5.02;100.00
4392;BME280;2210;51.938;8.488;2023-02-13T19:23:28;102515.56;;;5.00;100.00
4392;BME280;2210;51.938;8.488;2023-02-13T19:27:29;102517.47;;;4.89;100.00
4392;BME280;2210;51.938;8.488;2023-02-13T19:31:30;102514.47;;;4.83;100.00
4392;BME280;2210;51.938;8.488;2023-02-13T19:35:31;102510.56;;;4.85;100.00
4392;BME280;2210;51.938;8.488;2023-02-13T19:39:31;102513.31;;;4.85;100.00
4392;BME280;2210;51.938;8.488;2023-02-13T19:43:31;102513.34;;;4.76;100.00
4392;BME280;2210;51.938;8.488;2023-02-13T19:47:32;102521.34;;;4.87;100.00
4392;BME280;2210;51.938;8.488;2023-02-13T19:51:33;102516.50;;;4.81;100.00
4392;BME280;2210;51.938;8.488;2023-02-13T19:55:34;102518.81;;;4.76;100.00
4392;BME280;2210;51.938;8.488;2023-02-13T19:59:34;102510.50;;;4.67;100.00
4392;BME280;2210;51.938;8.488;2023-02-13T20:03:35;102502.19;;;4.59;100.00
4392;BME280;2210;51.938;8.488;2023-02-13T20:07:35;102505.50;;;4.53;100.00
4392;BME280;2210;51.938;8.488;2023-02-13T20:11:36;102506.53;;;4.52;100.00
4392;BME280;2210;51.938;8.488;2023-02-13T20:15:39;102506.44;;;4.44;100.00
4392;BME280;2210;51.938;8.488;2023-02-13T20:19:40;102512.88;;;4.43;100.00
4392;BME280;2210;51.938;8.488;2023-02-13T20:23:41;102505.41;;;4.35;100.00
4392;BME280;2210;51.938;8.488;2023-02-13T20:27:42;102508.31;;;4.33;100.00
4392;BME280;2210;51.938;8.488;2023-02-13T20:31:42;102517.22;;;4.35;100.00
4392;BME280;2210;51.938;8.488;2023-02-13T20:35:42;102513.19;;;4.39;100.00
4392;BME280;2210;51.938;8.488;2023-02-13T20:39:43;102512.78;;;4.34;100.00
4392;BME280;2210;51.938;8.488;2023-02-13T20:43:43;102511.06;;;4.24;100.00
4392;BME280;2210;51.938;8.488;2023-02-13T20:47:44;102514.38;;;4.17;100.00
4392;BME280;2210;51.938;8.488;2023-02-13T20:51:47;102510.66;;;4.09;100.00
4392;BME280;2210;51.938;8.488;2023-02-13T20:55:47;102502.19;;;4.02;100.00
4392;BME280;2210;51.938;8.488;2023-02-13T20:59:47;102498.72;;;4.00;100.00
4392;BME280;2210;51.938;8.488;2023-02-13T21:03:48;102505.78;;;3.83;100.00
4392;BME280;2210;51.938;8.488;2023-02-13T21:07:55;102501.03;;;3.85;100.00
4392;BME280;2210;51.938;8.488;2023-02-13T21:11:55;102519.44;;;3.83;100.00
4392;BME280;2210;51.938;8.488;2023-02-13T21:16:03;102512.41;;;3.70;100.00
4392;BME280;2210;51.938;8.488;2023-02-13T21:20:04;102512.94;;;3.64;100.00
4392;BME280;2210;51.938;8.488;2023-02-13T21:24:07;102512.94;;;3.64;100.00
4392;BME280;2210;51.938;8.488;2023-02-13T21:28:22;102510.91;;;3.57;100.00
4392;BME280;2210;51.938;8.488;2023-02-13T21:32:28;102516.97;;;3.60;100.00
4392;BME280;2210;51.938;8.488;2023-02-13T21:36:36;102524.44;;;3.58;100.00
4392;BME280;2210;51.938;8.488;2023-02-13T21:40:39;102525.00;;;3.52;100.00
4392;BME280;2210;51.938;8.488;2023-02-13T21:44:45;102518.66;;;3.42;100.00
4392;BME280;2210;51.938;8.488;2023-02-13T21:48:47;102528.72;;;3.41;100.00
4392;BME280;2210;51.938;8.488;2023-02-13T21:52:50;102510.63;;;3.40;100.00
4392;BME280;2210;51.938;8.488;2023-02-13T21:56:53;102513.34;;;3.30;100.00
4392;BME280;2210;51.938;8.488;2023-02-13T22:00:54;102514.03;;;3.23;100.00
4392;BME280;2210;51.938;8.488;2023-02-13T22:04:57;102519.63;;;3.21;100.00
4392;BME280;2210;51.938;8.488;2023-02-13T22:09:00;102524.38;;;3.29;100.00
4392;BME280;2210;51.938;8.488;2023-02-13T22:13:06;102526.38;;;3.27;100.00
4392;BME280;2210;51.938;8.488;2023-02-13T22:17:07;102524.94;;;3.23;100.00
4392;BME280;2210;51.938;8.488;2023-02-13T22:21:09;102530.06;;;3.16;100.00
4392;BME280;2210;51.938;8.488;2023-02-13T22:25:09;102525.34;;;3.18;100.00
4392;BME280;2210;51.938;8.488;2023-02-13T22:29:13;102521.19;;;3.14;100.00
4392;BME280;2210;51.938;8.488;2023-02-13T22:33:13;102528.91;;;3.09;100.00
4392;BME280;2210;51.938;8.488;2023-02-13T22:37:14;102528.31;;;3.05;100.00
4392;BME280;2210;51.938;8.488;2023-02-13T22:41:20;102530.66;;;3.10;100.00
4392;BME280;2210;51.938;8.488;2023-02-13T22:45:24;102525.47;;;3.07;100.00
4392;BME280;2210;51.938;8.488;2023-02-13T22:49:27;102525.47;;;3.07;100.00
4392;BME280;2210;51.938;8.488;2023-02-13T22:53:27;102520.84;;;2.97;100.00
4392;BME280;2210;51.938;8.488;2023-02-13T22:57:30;102523.13;;;2.92;100.00
4392;BME280;2210;51.938;8.488;2023-02-13T23:01:33;102522.81;;;2.85;100.00
4392;BME280;2210;51.938;8.488;2023-02-13T23:05:37;102526.66;;;2.83;100.00
4392;BME280;2210;51.938;8.488;2023-02-13T23:09:43;102517.19;;;2.77;100.00
4392;BME280;2210;51.938;8.488;2023-02-13T23:13:43;102519.75;;;2.79;100.00
4392;BME280;2210;51.938;8.488;2023-02-13T23:17:43;102510.78;;;2.88;100.00
4392;BME280;2210;51.938;8.488;2023-02-13T23:22:03;102505.59;;;2.85;100.00
4392;BME280;2210;51.938;8.488;2023-02-13T23:26:06;102509.00;;;2.77;100.00
4392;BME280;2210;51.938;8.488;2023-02-13T23:30:12;102514.13;;;2.70;100.00
4392;BME280;2210;51.938;8.488;2023-02-13T23:34:12;102516.41;;;2.65;100.00
4392;BME280;2210;51.938;8.488;2023-02-13T23:38:20;102506.63;;;2.63;100.00
4392;BME280;2210;51.938;8.488;2023-02-13T23:42:23;102509.28;;;2.74;100.00